sensor_id;sensor_type;location;lat;lon;timestamp;P1;durP1;ratioP1;P2;durP2;ratioP2
42906;SDS011;28552;51.146;6.576;2022-08-14T00:01:20;4.88;;;2.30;;
42906;SDS011;28552;51.146;6.576;2022-08-14T00:04:21;4.45;;;2.38;;
42906;SDS011;28552;51.146;6.576;2022-08-14T00:07:22;5.28;;;2.70;;
42906;SDS011;28552;51.146;6.576;2022-08-14T00:10:23;5.75;;;2.17;;
42906;SDS011;28552;51.146;6.576;2022-08-14T00:13:25;5.32;;;2.75;;
42906;SDS011;28552;51.146;6.576;2022-08-14T00:16:28;4.95;;;2.50;;
42906;SDS011;28552;51.146;6.576;2022-08-14T00:19:29;6.47;;;2.60;;
42906;SDS011;28552;51.146;6.576;2022-08-14T00:22:29;5.28;;;2.50;;
42906;SDS011;28552;51.146;6.576;2022-08-14T00:25:30;5.32;;;2.70;;
42906;SDS011;28552;51.146;6.576;2022-08-14T00:28:31;6.57;;;2.90;;
42906;SDS011;28552;51.146;6.576;2022-08-14T00:31:32;5.60;;;2.50;;
42906;SDS011;28552;51.146;6.576;2022-08-14T00:34:32;4.30;;;1.98;;
42906;SDS011;28552;51.146;6.576;2022-08-14T00:37:33;5.97;;;2.65;;
42906;SDS011;28552;51.146;6.576;2022-08-14T00:40:34;5.30;;;2.35;;
42906;SDS011;28552;51.146;6.576;2022-08-14T00:43:35;4.95;;;2.38;;
42906;SDS011;28552;51.146;6.576;2022-08-14T00:46:36;7.05;;;2.80;;
42906;SDS011;28552;51.146;6.576;2022-08-14T00:49:37;6.15;;;2.47;;
42906;SDS011;28552;51.146;6.576;2022-08-14T00:52:38;4.60;;;2.28;;
42906;SDS011;28552;51.146;6.576;2022-08-14T00:55:38;5.38;;;2.75;;
42906;SDS011;28552;51.146;6.576;2022-08-14T00:58:40;5.38;;;2.63;;
42906;SDS011;28552;51.146;6.576;2022-08-14T01:01:41;5.32;;;2.88;;
42906;SDS011;28552;51.146;6.576;2022-08-14T01:04:41;4.82;;;2.40;;
42906;SDS011;28552;51.146;6.576;2022-08-14T01:07:43;5.18;;;2.78;;
42906;SDS011;28552;51.146;6.576;2022-08-14T01:10:45;6.60;;;3.00;;
42906;SDS011;28552;51.146;6.576;2022-08-14T01:13:50;4.70;;;2.45;;
42906;SDS011;28552;51.146;6.576;2022-08-14T01:16:51;6.47;;;3.08;;
42906;SDS011;28552;51.146;6.576;2022-08-14T01:19:52;6.30;;;2.67;;
42906;SDS011;28552;51.146;6.576;2022-08-14T01:23:09;6.13;;;2.75;;
42906;SDS011;28552;51.146;6.576;2022-08-14T01:26:11;6.18;;;2.88;;
42906;SDS011;28552;51.146;6.576;2022-08-14T01:29:14;5.68;;;2.80;;
42906;SDS011;28552;51.146;6.576;2022-08-14T01:32:16;6.90;;;3.22;;
42906;SDS011;28552;51.146;6.576;2022-08-14T01:35:18;5.32;;;2.75;;
42906;SDS011;28552;51.146;6.576;2022-08-14T01:38:19;5.75;;;3.13;;
42906;SDS011;28552;51.146;6.576;2022-08-14T01:41:20;6.60;;;3.17;;
42906;SDS011;28552;51.146;6.576;2022-08-14T01:44:22;5.35;;;2.90;;
42906;SDS011;28552;51.146;6.576;2022-08-14T01:47:27;4.80;;;2.70;;
42906;SDS011;28552;51.146;6.576;2022-08-14T01:50:28;5.03;;;2.72;;
42906;SDS011;28552;51.146;6.576;2022-08-14T01:53:28;6.55;;;2.97;;
42906;SDS011;28552;51.146;6.576;2022-08-14T01:56:32;6.05;;;2.95;;
42906;SDS011;28552;51.146;6.576;2022-08-14T01:59:38;5.78;;;3.08;;
42906;SDS011;28552;51.146;6.576;2022-08-14T02:02:42;6.65;;;2.95;;
42906;SDS011;28552;51.146;6.576;2022-08-14T02:05:43;6.78;;;3.08;;
42906;SDS011;28552;51.146;6.576;2022-08-14T02:08:44;4.72;;;2.45;;
42906;SDS011;28552;51.146;6.576;2022-08-14T02:11:44;5.90;;;3.15;;
42906;SDS011;28552;51.146;6.576;2022-08-14T02:14:45;7.70;;;3.58;;
42906;SDS011;28552;51.146;6.576;2022-08-14T02:17:47;5.47;;;3.17;;
42906;SDS011;28552;51.146;6.576;2022-08-14T02:20:49;6.85;;;3.33;;
42906;SDS011;28552;51.146;6.576;2022-08-14T02:23:50;5.97;;;3.38;;
42906;SDS011;28552;51.146;6.576;2022-08-14T02:26:53;5.68;;;2.88;;
42906;SDS011;28552;51.146;6.576;2022-08-14T02:29:55;6.05;;;3.30;;
42906;SDS011;28552;51.146;6.576;2022-08-14T02:32:55;6.38;;;3.13;;
42906;SDS011;28552;51.146;6.576;2022-08-14T02:35:56;5.88;;;3.42;;
42906;SDS011;28552;51.146;6.576;2022-08-14T02:38:57;5.20;;;2.80;;
42906;SDS011;28552;51.146;6.576;2022-08-14T02:41:58;6.88;;;3.17;;
42906;SDS011;28552;51.146;6.576;2022-08-14T02:44:58;8.02;;;3.33;;
42906;SDS011;28552;51.146;6.576;2022-08-14T02:48:00;6.10;;;3.55;;
42906;SDS011;28552;51.146;6.576;2022-08-14T02:51:03;5.60;;;3.08;;
42906;SDS011;28552;51.146;6.576;2022-08-14T02:54:06;7.05;;;3.20;;
42906;SDS011;28552;51.146;6.576;2022-08-14T02:57:08;5.38;;;2.95;;
42906;SDS011;28552;51.146;6.576;2022-08-14T03:00:09;6.30;;;3.30;;
42906;SDS011;28552;51.146;6.576;2022-08-14T03:03:12;6.10;;;3.22;;
42906;SDS011;28552;51.146;6.576;2022-08-14T03:06:13;6.63;;;3.28;;
42906;SDS011;28552;51.146;6.576;2022-08-14T03:09:14;6.50;;;3.08;;
42906;SDS011;28552;51.146;6.576;2022-08-14T03:12:15;6.47;;;3.53;;
42906;SDS011;28552;51.146;6.576;2022-08-14T03:15:16;7.05;;;3.58;;
42906;SDS011;28552;51.146;6.576;2022-08-14T03:18:16;7.35;;;3.38;;
42906;SDS011;28552;51.146;6.576;2022-08-14T03:21:17;7.72;;;3.67;;
42906;SDS011;28552;51.146;6.576;2022-08-14T03:24:19;7.10;;;3.60;;
42906;SDS011;28552;51.146;6.576;2022-08-14T03:27:21;6.10;;;3.45;;
42906;SDS011;28552;51.146;6.576;2022-08-14T03:30:21;6.63;;;3.45;;
42906;SDS011;28552;51.146;6.576;2022-08-14T03:33:22;7.15;;;3.70;;
42906;SDS011;28552;51.146;6.576;2022-08-14T03:36:23;7.15;;;3.55;;
42906;SDS011;28552;51.146;6.576;2022-08-14T03:39:24;6.28;;;3.45;;
42906;SDS011;28552;51.146;6.576;2022-08-14T03:42:26;7.57;;;4.15;;
42906;SDS011;28552;51.146;6.576;2022-08-14T03:45:27;7.10;;;3.65;;
42906;SDS011;28552;51.146;6.576;2022-08-14T03:48:27;6.82;;;3.30;;
42906;SDS011;28552;51.146;6.576;2022-08-14T03:51:28;6.05;;;3.38;;
42906;SDS011;28552;51.146;6.576;2022-08-14T03:54:30;7.60;;;3.97;;
42906;SDS011;28552;51.146;6.576;2022-08-14T03:57:34;6.72;;;3.65;;
42906;SDS011;28552;51.146;6.576;2022-08-14T04:00:35;7.90;;;3.90;;
42906;SDS011;28552;51.146;6.576;2022-08-14T04:03:36;7.85;;;4.15;;
42906;SDS011;28552;51.146;6.576;2022-08-14T04:06:37;7.82;;;3.60;;
42906;SDS011;28552;51.146;6.576;2022-08-14T04:09:38;6.55;;;3.70;;
42906;SDS011;28552;51.146;6.576;2022-08-14T04:12:38;7.10;;;3.65;;
42906;SDS011;28552;51.146;6.576;2022-08-14T04:15:40;8.52;;;4.53;;
42906;SDS011;28552;51.146;6.576;2022-08-14T04:18:42;11.57;;;4.60;;
42906;SDS011;28552;51.146;6.576;2022-08-14T04:21:45;6.75;;;3.42;;
42906;SDS011;28552;51.146;6.576;2022-08-14T04:24:45;10.73;;;4.20;;
42906;SDS011;28552;51.146;6.576;2022-08-14T04:27:46;8.50;;;3.85;;
42906;SDS011;28552;51.146;6.576;2022-08-14T04:30:47;7.07;;;4.05;;
42906;SDS011;28552;51.146;6.576;2022-08-14T04:33:47;7.43;;;3.97;;
42906;SDS011;28552;51.146;6.576;2022-08-14T04:36:48;6.97;;;3.92;;
42906;SDS011;28552;51.146;6.576;2022-08-14T04:40:04;8.00;;;4.07;;
42906;SDS011;28552;51.146;6.576;2022-08-14T04:43:20;7.35;;;3.58;;
42906;SDS011;28552;51.146;6.576;2022-08-14T04:46:36;7.15;;;3.97;;
42906;SDS011;28552;51.146;6.576;2022-08-14T04:49:36;7.63;;;3.88;;
42906;SDS011;28552;51.146;6.576;2022-08-14T04:52:37;6.25;;;3.50;;
42906;SDS011;28552;51.146;6.576;2022-08-14T04:55:38;9.30;;;4.40;;
42906;SDS011;28552;51.146;6.576;2022-08-14T04:58:41;9.05;;;4.63;;
42906;SDS011;28552;51.146;6.576;2022-08-14T05:01:42;7.90;;;4.15;;
42906;SDS011;28552;51.146;6.576;2022-08-14T05:04:43;6.97;;;3.78;;
42906;SDS011;28552;51.146;6.576;2022-08-14T05:07:44;7.40;;;3.83;;
42906;SDS011;28552;51.146;6.576;2022-08-14T05:10:46;6.95;;;3.80;;
42906;SDS011;28552;51.146;6.576;2022-08-14T05:13:51;7.15;;;3.90;;
42906;SDS011;28552;51.146;6.576;2022-08-14T05:16:51;8.32;;;3.83;;
42906;SDS011;28552;51.146;6.576;2022-08-14T05:19:52;9.88;;;3.63;;
42906;SDS011;28552;51.146;6.576;2022-08-14T05:22:52;10.27;;;4.10;;
42906;SDS011;28552;51.146;6.576;2022-08-14T05:25:54;6.90;;;3.50;;
42906;SDS011;28552;51.146;6.576;2022-08-14T05:29:12;8.25;;;4.43;;
42906;SDS011;28552;51.146;6.576;2022-08-14T05:32:12;8.07;;;4.03;;
42906;SDS011;28552;51.146;6.576;2022-08-14T05:35:15;7.20;;;4.13;;
42906;SDS011;28552;51.146;6.576;2022-08-14T05:38:16;7.75;;;3.72;;
42906;SDS011;28552;51.146;6.576;2022-08-14T05:41:19;9.18;;;4.40;;
42906;SDS011;28552;51.146;6.576;2022-08-14T05:44:20;9.52;;;4.68;;
42906;SDS011;28552;51.146;6.576;2022-08-14T05:47:20;10.52;;;4.40;;
42906;SDS011;28552;51.146;6.576;2022-08-14T05:50:21;8.85;;;4.03;;
42906;SDS011;28552;51.146;6.576;2022-08-14T05:53:22;7.72;;;4.20;;
42906;SDS011;28552;51.146;6.576;2022-08-14T05:56:25;7.85;;;3.95;;
42906;SDS011;28552;51.146;6.576;2022-08-14T05:59:25;7.93;;;4.40;;
42906;SDS011;28552;51.146;6.576;2022-08-14T06:02:26;7.70;;;4.25;;
42906;SDS011;28552;51.146;6.576;2022-08-14T06:05:26;7.38;;;4.60;;
42906;SDS011;28552;51.146;6.576;2022-08-14T06:08:29;8.25;;;4.13;;
42906;SDS011;28552;51.146;6.576;2022-08-14T06:11:31;7.18;;;4.43;;
42906;SDS011;28552;51.146;6.576;2022-08-14T06:14:31;8.52;;;4.38;;
42906;SDS011;28552;51.146;6.576;2022-08-14T06:20:49;8.10;;;4.60;;
42906;SDS011;28552;51.146;6.576;2022-08-14T06:23:50;7.07;;;4.20;;
42906;SDS011;28552;51.146;6.576;2022-08-14T06:26:51;7.70;;;4.28;;
42906;SDS011;28552;51.146;6.576;2022-08-14T06:29:51;7.75;;;4.63;;
42906;SDS011;28552;51.146;6.576;2022-08-14T06:32:52;7.57;;;4.18;;
42906;SDS011;28552;51.146;6.576;2022-08-14T06:35:53;7.85;;;4.05;;
42906;SDS011;28552;51.146;6.576;2022-08-14T06:38:54;10.02;;;4.60;;
42906;SDS011;28552;51.146;6.576;2022-08-14T06:41:54;8.25;;;3.92;;
42906;SDS011;28552;51.146;6.576;2022-08-14T06:44:55;8.40;;;4.13;;
42906;SDS011;28552;51.146;6.576;2022-08-14T06:47:56;7.72;;;4.20;;
42906;SDS011;28552;51.146;6.576;2022-08-14T06:50:57;8.40;;;4.45;;
42906;SDS011;28552;51.146;6.576;2022-08-14T06:53:58;6.90;;;4.03;;
42906;SDS011;28552;51.146;6.576;2022-08-14T06:56:58;6.53;;;3.90;;
42906;SDS011;28552;51.146;6.576;2022-08-14T06:59:59;7.35;;;4.13;;
42906;SDS011;28552;51.146;6.576;2022-08-14T07:02:59;8.25;;;4.13;;
42906;SDS011;28552;51.146;6.576;2022-08-14T07:06:15;8.23;;;4.40;;
42906;SDS011;28552;51.146;6.576;2022-08-14T07:09:16;7.20;;;4.00;;
42906;SDS011;28552;51.146;6.576;2022-08-14T07:12:17;7.35;;;4.13;;
42906;SDS011;28552;51.146;6.576;2022-08-14T07:15:17;7.25;;;4.32;;
42906;SDS011;28552;51.146;6.576;2022-08-14T07:18:19;7.50;;;4.32;;
42906;SDS011;28552;51.146;6.576;2022-08-14T07:21:20;8.30;;;4.53;;
42906;SDS011;28552;51.146;6.576;2022-08-14T07:24:21;6.60;;;4.30;;
42906;SDS011;28552;51.146;6.576;2022-08-14T07:27:21;7.63;;;3.75;;
42906;SDS011;28552;51.146;6.576;2022-08-14T07:30:22;8.57;;;4.18;;
42906;SDS011;28552;51.146;6.576;2022-08-14T07:33:24;7.55;;;4.57;;
42906;SDS011;28552;51.146;6.576;2022-08-14T07:36:25;7.47;;;4.60;;
42906;SDS011;28552;51.146;6.576;2022-08-14T07:39:27;6.80;;;4.25;;
42906;SDS011;28552;51.146;6.576;2022-08-14T07:42:27;8.00;;;4.47;;
42906;SDS011;28552;51.146;6.576;2022-08-14T07:45:29;6.25;;;3.58;;
42906;SDS011;28552;51.146;6.576;2022-08-14T07:48:29;7.28;;;4.05;;
42906;SDS011;28552;51.146;6.576;2022-08-14T07:51:30;5.60;;;3.22;;
42906;SDS011;28552;51.146;6.576;2022-08-14T07:54:31;7.65;;;4.32;;
42906;SDS011;28552;51.146;6.576;2022-08-14T07:57:31;7.63;;;4.50;;
42906;SDS011;28552;51.146;6.576;2022-08-14T08:00:32;6.43;;;3.85;;
42906;SDS011;28552;51.146;6.576;2022-08-14T08:03:33;7.43;;;4.25;;
42906;SDS011;28552;51.146;6.576;2022-08-14T08:06:35;7.20;;;4.35;;
42906;SDS011;28552;51.146;6.576;2022-08-14T08:09:40;7.97;;;4.00;;
42906;SDS011;28552;51.146;6.576;2022-08-14T08:12:43;6.68;;;4.18;;
42906;SDS011;28552;51.146;6.576;2022-08-14T08:15:45;6.22;;;3.80;;
42906;SDS011;28552;51.146;6.576;2022-08-14T08:18:48;7.13;;;4.13;;
42906;SDS011;28552;51.146;6.576;2022-08-14T08:21:49;6.93;;;4.22;;
42906;SDS011;28552;51.146;6.576;2022-08-14T08:24:50;6.85;;;3.97;;
42906;SDS011;28552;51.146;6.576;2022-08-14T08:31:08;6.60;;;3.88;;
42906;SDS011;28552;51.146;6.576;2022-08-14T08:34:11;6.65;;;3.92;;
42906;SDS011;28552;51.146;6.576;2022-08-14T08:37:12;7.70;;;4.00;;
42906;SDS011;28552;51.146;6.576;2022-08-14T08:40:22;6.20;;;3.75;;
42906;SDS011;28552;51.146;6.576;2022-08-14T08:43:26;6.75;;;4.20;;
42906;SDS011;28552;51.146;6.576;2022-08-14T08:46:29;10.75;;;3.90;;
42906;SDS011;28552;51.146;6.576;2022-08-14T08:49:38;5.95;;;3.50;;
42906;SDS011;28552;51.146;6.576;2022-08-14T08:52:49;10.68;;;4.22;;
42906;SDS011;28552;51.146;6.576;2022-08-14T08:55:51;5.53;;;3.42;;
42906;SDS011;28552;51.146;6.576;2022-08-14T08:58:52;7.35;;;3.90;;
42906;SDS011;28552;51.146;6.576;2022-08-14T09:05:00;6.20;;;3.58;;
42906;SDS011;28552;51.146;6.576;2022-08-14T09:08:12;7.43;;;3.75;;
42906;SDS011;28552;51.146;6.576;2022-08-14T09:11:13;6.45;;;3.20;;
42906;SDS011;28552;51.146;6.576;2022-08-14T09:14:14;7.05;;;3.78;;
42906;SDS011;28552;51.146;6.576;2022-08-14T09:17:15;6.10;;;3.55;;
42906;SDS011;28552;51.146;6.576;2022-08-14T09:20:16;5.55;;;3.05;;
42906;SDS011;28552;51.146;6.576;2022-08-14T09:23:16;10.48;;;3.55;;
42906;SDS011;28552;51.146;6.576;2022-08-14T09:26:18;6.38;;;3.63;;
42906;SDS011;28552;51.146;6.576;2022-08-14T09:29:19;6.03;;;3.80;;
42906;SDS011;28552;51.146;6.576;2022-08-14T09:32:21;7.13;;;3.42;;
42906;SDS011;28552;51.146;6.576;2022-08-14T09:42:22;6.93;;;3.03;;
42906;SDS011;28552;51.146;6.576;2022-08-14T09:45:35;6.50;;;3.45;;
42906;SDS011;28552;51.146;6.576;2022-08-14T09:48:43;5.72;;;3.22;;
42906;SDS011;28552;51.146;6.576;2022-08-14T09:51:44;5.43;;;3.25;;
42906;SDS011;28552;51.146;6.576;2022-08-14T09:54:46;5.75;;;3.20;;
42906;SDS011;28552;51.146;6.576;2022-08-14T09:57:47;6.15;;;3.40;;
42906;SDS011;28552;51.146;6.576;2022-08-14T10:00:50;5.68;;;3.25;;
42906;SDS011;28552;51.146;6.576;2022-08-14T10:03:54;5.75;;;2.90;;
42906;SDS011;28552;51.146;6.576;2022-08-14T10:06:56;5.30;;;3.25;;
42906;SDS011;28552;51.146;6.576;2022-08-14T10:09:57;5.05;;;3.13;;
42906;SDS011;28552;51.146;6.576;2022-08-14T10:13:00;5.57;;;3.05;;
42906;SDS011;28552;51.146;6.576;2022-08-14T10:16:02;5.65;;;3.13;;
42906;SDS011;28552;51.146;6.576;2022-08-14T10:19:05;5.43;;;3.10;;
42906;SDS011;28552;51.146;6.576;2022-08-14T10:22:08;5.63;;;3.20;;
42906;SDS011;28552;51.146;6.576;2022-08-14T10:25:10;5.32;;;3.10;;
42906;SDS011;28552;51.146;6.576;2022-08-14T10:28:13;6.38;;;3.42;;
42906;SDS011;28552;51.146;6.576;2022-08-14T10:31:19;6.53;;;2.95;;
42906;SDS011;28552;51.146;6.576;2022-08-14T10:34:31;4.93;;;2.97;;
42906;SDS011;28552;51.146;6.576;2022-08-14T10:37:37;4.80;;;2.25;;
42906;SDS011;28552;51.146;6.576;2022-08-14T10:40:40;4.82;;;3.05;;
42906;SDS011;28552;51.146;6.576;2022-08-14T10:43:41;5.55;;;3.20;;
42906;SDS011;28552;51.146;6.576;2022-08-14T10:46:45;5.68;;;3.05;;
42906;SDS011;28552;51.146;6.576;2022-08-14T10:52:57;5.65;;;2.60;;
42906;SDS011;28552;51.146;6.576;2022-08-14T10:55:59;4.63;;;2.67;;
42906;SDS011;28552;51.146;6.576;2022-08-14T10:59:05;4.85;;;2.58;;
42906;SDS011;28552;51.146;6.576;2022-08-14T11:02:15;4.90;;;2.60;;
42906;SDS011;28552;51.146;6.576;2022-08-14T11:05:19;5.00;;;2.70;;
42906;SDS011;28552;51.146;6.576;2022-08-14T11:08:31;4.60;;;2.40;;
42906;SDS011;28552;51.146;6.576;2022-08-14T11:11:32;5.80;;;2.80;;
42906;SDS011;28552;51.146;6.576;2022-08-14T11:14:48;5.13;;;2.53;;
42906;SDS011;28552;51.146;6.576;2022-08-14T11:17:51;4.25;;;2.33;;
42906;SDS011;28552;51.146;6.576;2022-08-14T11:20:54;5.03;;;2.75;;
42906;SDS011;28552;51.146;6.576;2022-08-14T11:23:55;5.32;;;2.75;;
42906;SDS011;28552;51.146;6.576;2022-08-14T11:26:57;4.72;;;2.83;;
42906;SDS011;28552;51.146;6.576;2022-08-14T11:30:02;5.68;;;3.00;;
42906;SDS011;28552;51.146;6.576;2022-08-14T11:33:06;7.70;;;3.08;;
42906;SDS011;28552;51.146;6.576;2022-08-14T11:36:07;8.38;;;2.60;;
42906;SDS011;28552;51.146;6.576;2022-08-14T11:39:16;5.30;;;2.50;;
42906;SDS011;28552;51.146;6.576;2022-08-14T11:42:21;5.55;;;2.42;;
42906;SDS011;28552;51.146;6.576;2022-08-14T11:45:24;5.20;;;2.33;;
42906;SDS011;28552;51.146;6.576;2022-08-14T11:48:25;5.25;;;2.75;;
42906;SDS011;28552;51.146;6.576;2022-08-14T11:51:27;4.47;;;2.42;;
42906;SDS011;28552;51.146;6.576;2022-08-14T11:54:27;4.45;;;2.30;;
42906;SDS011;28552;51.146;6.576;2022-08-14T11:57:29;4.53;;;2.38;;
42906;SDS011;28552;51.146;6.576;2022-08-14T12:00:31;3.47;;;2.00;;
42906;SDS011;28552;51.146;6.576;2022-08-14T12:06:49;4.55;;;2.22;;
42906;SDS011;28552;51.146;6.576;2022-08-14T12:09:52;4.00;;;2.08;;
42906;SDS011;28552;51.146;6.576;2022-08-14T12:12:55;5.88;;;2.60;;
42906;SDS011;28552;51.146;6.576;2022-08-14T12:15:57;5.05;;;2.53;;
42906;SDS011;28552;51.146;6.576;2022-08-14T12:19:00;3.78;;;2.10;;
42906;SDS011;28552;51.146;6.576;2022-08-14T12:22:01;5.25;;;2.78;;
42906;SDS011;28552;51.146;6.576;2022-08-14T12:25:03;3.85;;;2.25;;
42906;SDS011;28552;51.146;6.576;2022-08-14T12:28:09;3.80;;;2.00;;
42906;SDS011;28552;51.146;6.576;2022-08-14T12:31:11;4.88;;;2.55;;
42906;SDS011;28552;51.146;6.576;2022-08-14T12:34:16;4.07;;;2.22;;
42906;SDS011;28552;51.146;6.576;2022-08-14T12:37:19;4.78;;;2.50;;
42906;SDS011;28552;51.146;6.576;2022-08-14T12:40:28;4.55;;;2.33;;
42906;SDS011;28552;51.146;6.576;2022-08-14T12:43:30;4.07;;;1.90;;
42906;SDS011;28552;51.146;6.576;2022-08-14T12:46:34;4.20;;;2.20;;
42906;SDS011;28552;51.146;6.576;2022-08-14T12:49:47;4.70;;;2.65;;
42906;SDS011;28552;51.146;6.576;2022-08-14T12:52:51;4.30;;;2.65;;
42906;SDS011;28552;51.146;6.576;2022-08-14T12:55:59;4.13;;;2.28;;
42906;SDS011;28552;51.146;6.576;2022-08-14T12:59:00;4.85;;;2.60;;
42906;SDS011;28552;51.146;6.576;2022-08-14T13:02:02;4.18;;;2.20;;
42906;SDS011;28552;51.146;6.576;2022-08-14T13:05:02;4.30;;;2.22;;
42906;SDS011;28552;51.146;6.576;2022-08-14T13:08:04;5.20;;;2.90;;
42906;SDS011;28552;51.146;6.576;2022-08-14T13:11:06;4.95;;;2.22;;
42906;SDS011;28552;51.146;6.576;2022-08-14T13:14:12;4.40;;;2.60;;
42906;SDS011;28552;51.146;6.576;2022-08-14T13:17:15;4.22;;;2.20;;
42906;SDS011;28552;51.146;6.576;2022-08-14T13:20:17;4.60;;;2.38;;
42906;SDS011;28552;51.146;6.576;2022-08-14T13:23:20;4.38;;;2.00;;
42906;SDS011;28552;51.146;6.576;2022-08-14T13:26:24;3.78;;;2.30;;
42906;SDS011;28552;51.146;6.576;2022-08-14T13:29:27;4.55;;;2.33;;
42906;SDS011;28552;51.146;6.576;2022-08-14T13:32:30;5.25;;;2.63;;
42906;SDS011;28552;51.146;6.576;2022-08-14T13:35:33;5.22;;;2.50;;
42906;SDS011;28552;51.146;6.576;2022-08-14T13:38:34;3.92;;;2.30;;
42906;SDS011;28552;51.146;6.576;2022-08-14T13:41:34;4.15;;;2.03;;
42906;SDS011;28552;51.146;6.576;2022-08-14T13:44:36;4.40;;;2.40;;
42906;SDS011;28552;51.146;6.576;2022-08-14T13:47:37;4.72;;;2.35;;
42906;SDS011;28552;51.146;6.576;2022-08-14T13:50:38;4.60;;;2.53;;
42906;SDS011;28552;51.146;6.576;2022-08-14T13:53:45;4.97;;;2.55;;
42906;SDS011;28552;51.146;6.576;2022-08-14T13:56:47;4.50;;;2.70;;
42906;SDS011;28552;51.146;6.576;2022-08-14T13:59:49;3.88;;;2.10;;
42906;SDS011;28552;51.146;6.576;2022-08-14T14:02:50;3.88;;;2.20;;
42906;SDS011;28552;51.146;6.576;2022-08-14T14:05:52;5.05;;;2.42;;
42906;SDS011;28552;51.146;6.576;2022-08-14T14:08:54;3.75;;;2.05;;
42906;SDS011;28552;51.146;6.576;2022-08-14T14:11:57;4.38;;;2.30;;
42906;SDS011;28552;51.146;6.576;2022-08-14T14:14:58;5.07;;;2.40;;
42906;SDS011;28552;51.146;6.576;2022-08-14T14:17:59;4.45;;;2.50;;
42906;SDS011;28552;51.146;6.576;2022-08-14T14:21:01;4.75;;;2.50;;
42906;SDS011;28552;51.146;6.576;2022-08-14T14:24:02;4.20;;;2.13;;
42906;SDS011;28552;51.146;6.576;2022-08-14T14:27:04;4.30;;;2.28;;
42906;SDS011;28552;51.146;6.576;2022-08-14T14:30:08;4.18;;;2.25;;
42906;SDS011;28552;51.146;6.576;2022-08-14T14:33:10;4.28;;;2.28;;
42906;SDS011;28552;51.146;6.576;2022-08-14T14:36:13;4.35;;;2.22;;
42906;SDS011;28552;51.146;6.576;2022-08-14T14:39:20;4.45;;;2.25;;
42906;SDS011;28552;51.146;6.576;2022-08-14T14:42:25;4.75;;;2.63;;
42906;SDS011;28552;51.146;6.576;2022-08-14T14:45:27;5.40;;;2.30;;
42906;SDS011;28552;51.146;6.576;2022-08-14T14:48:28;4.95;;;2.45;;
42906;SDS011;28552;51.146;6.576;2022-08-14T14:51:30;4.47;;;2.30;;
42906;SDS011;28552;51.146;6.576;2022-08-14T14:54:31;4.78;;;2.25;;
42906;SDS011;28552;51.146;6.576;2022-08-14T14:57:32;4.22;;;2.40;;
42906;SDS011;28552;51.146;6.576;2022-08-14T15:00:33;4.20;;;2.25;;
42906;SDS011;28552;51.146;6.576;2022-08-14T15:03:34;4.63;;;2.28;;
42906;SDS011;28552;51.146;6.576;2022-08-14T15:06:37;4.35;;;2.30;;
42906;SDS011;28552;51.146;6.576;2022-08-14T15:09:38;4.47;;;2.40;;
42906;SDS011;28552;51.146;6.576;2022-08-14T15:12:38;4.10;;;2.15;;
42906;SDS011;28552;51.146;6.576;2022-08-14T15:15:39;4.13;;;2.28;;
42906;SDS011;28552;51.146;6.576;2022-08-14T15:18:41;4.55;;;1.77;;
42906;SDS011;28552;51.146;6.576;2022-08-14T15:21:44;4.55;;;2.22;;
42906;SDS011;28552;51.146;6.576;2022-08-14T15:24:45;4.88;;;2.35;;
42906;SDS011;28552;51.146;6.576;2022-08-14T15:27:46;4.38;;;2.25;;
42906;SDS011;28552;51.146;6.576;2022-08-14T15:30:50;3.83;;;2.15;;
42906;SDS011;28552;51.146;6.576;2022-08-14T15:33:51;4.40;;;2.40;;
42906;SDS011;28552;51.146;6.576;2022-08-14T15:37:07;5.07;;;2.45;;
42906;SDS011;28552;51.146;6.576;2022-08-14T15:40:08;4.75;;;2.05;;
42906;SDS011;28552;51.146;6.576;2022-08-14T15:43:10;4.28;;;2.28;;
42906;SDS011;28552;51.146;6.576;2022-08-14T15:46:10;3.63;;;1.90;;
42906;SDS011;28552;51.146;6.576;2022-08-14T15:49:11;4.43;;;2.08;;
42906;SDS011;28552;51.146;6.576;2022-08-14T15:52:12;4.10;;;2.10;;
42906;SDS011;28552;51.146;6.576;2022-08-14T15:55:13;3.88;;;2.03;;
42906;SDS011;28552;51.146;6.576;2022-08-14T15:58:14;4.40;;;1.98;;
42906;SDS011;28552;51.146;6.576;2022-08-14T16:01:15;3.70;;;2.00;;
42906;SDS011;28552;51.146;6.576;2022-08-14T16:04:21;5.25;;;2.33;;
42906;SDS011;28552;51.146;6.576;2022-08-14T16:07:23;4.97;;;2.08;;
42906;SDS011;28552;51.146;6.576;2022-08-14T16:10:24;4.15;;;1.77;;
42906;SDS011;28552;51.146;6.576;2022-08-14T16:13:24;4.03;;;1.75;;
42906;SDS011;28552;51.146;6.576;2022-08-14T16:16:25;3.80;;;2.00;;
42906;SDS011;28552;51.146;6.576;2022-08-14T16:19:28;5.10;;;2.25;;
42906;SDS011;28552;51.146;6.576;2022-08-14T16:22:30;4.00;;;1.88;;
42906;SDS011;28552;51.146;6.576;2022-08-14T16:25:33;3.75;;;1.85;;
42906;SDS011;28552;51.146;6.576;2022-08-14T16:28:35;3.80;;;1.80;;
42906;SDS011;28552;51.146;6.576;2022-08-14T16:31:36;3.28;;;1.77;;
42906;SDS011;28552;51.146;6.576;2022-08-14T16:34:36;4.97;;;1.98;;
42906;SDS011;28552;51.146;6.576;2022-08-14T16:37:41;4.03;;;2.05;;
42906;SDS011;28552;51.146;6.576;2022-08-14T16:40:42;4.18;;;2.05;;
42906;SDS011;28552;51.146;6.576;2022-08-14T16:43:44;3.78;;;1.92;;
42906;SDS011;28552;51.146;6.576;2022-08-14T16:46:45;4.82;;;2.10;;
42906;SDS011;28552;51.146;6.576;2022-08-14T16:49:47;4.88;;;2.42;;
42906;SDS011;28552;51.146;6.576;2022-08-14T16:52:51;4.13;;;1.90;;
42906;SDS011;28552;51.146;6.576;2022-08-14T16:59:11;3.97;;;2.13;;
42906;SDS011;28552;51.146;6.576;2022-08-14T17:02:12;3.97;;;2.10;;
42906;SDS011;28552;51.146;6.576;2022-08-14T17:05:14;4.22;;;1.88;;
42906;SDS011;28552;51.146;6.576;2022-08-14T17:08:16;5.10;;;2.20;;
42906;SDS011;28552;51.146;6.576;2022-08-14T17:11:21;4.18;;;2.30;;
42906;SDS011;28552;51.146;6.576;2022-08-14T17:14:23;4.38;;;2.30;;
42906;SDS011;28552;51.146;6.576;2022-08-14T17:17:40;4.10;;;1.98;;
42906;SDS011;28552;51.146;6.576;2022-08-14T17:20:41;3.92;;;1.90;;
42906;SDS011;28552;51.146;6.576;2022-08-14T17:23:45;5.75;;;2.58;;
42906;SDS011;28552;51.146;6.576;2022-08-14T17:26:48;4.57;;;2.30;;
42906;SDS011;28552;51.146;6.576;2022-08-14T17:29:51;5.45;;;2.30;;
42906;SDS011;28552;51.146;6.576;2022-08-14T17:32:53;4.30;;;2.28;;
42906;SDS011;28552;51.146;6.576;2022-08-14T17:39:10;4.78;;;2.30;;
42906;SDS011;28552;51.146;6.576;2022-08-14T17:42:12;4.25;;;1.95;;
42906;SDS011;28552;51.146;6.576;2022-08-14T17:45:14;4.13;;;1.98;;
42906;SDS011;28552;51.146;6.576;2022-08-14T17:48:24;5.15;;;2.20;;
42906;SDS011;28552;51.146;6.576;2022-08-14T17:51:28;4.75;;;2.38;;
42906;SDS011;28552;51.146;6.576;2022-08-14T17:54:32;4.03;;;2.03;;
42906;SDS011;28552;51.146;6.576;2022-08-14T17:57:37;3.80;;;1.70;;
42906;SDS011;28552;51.146;6.576;2022-08-14T18:00:40;4.15;;;2.13;;
42906;SDS011;28552;51.146;6.576;2022-08-14T18:03:42;3.88;;;2.08;;
42906;SDS011;28552;51.146;6.576;2022-08-14T18:06:46;6.25;;;2.88;;
42906;SDS011;28552;51.146;6.576;2022-08-14T18:09:48;5.30;;;2.60;;
42906;SDS011;28552;51.146;6.576;2022-08-14T18:12:50;3.65;;;1.80;;
42906;SDS011;28552;51.146;6.576;2022-08-14T18:15:51;5.22;;;1.92;;
42906;SDS011;28552;51.146;6.576;2022-08-14T18:18:54;3.60;;;2.05;;
42906;SDS011;28552;51.146;6.576;2022-08-14T18:21:56;6.60;;;2.10;;
42906;SDS011;28552;51.146;6.576;2022-08-14T18:24:59;4.60;;;2.13;;
42906;SDS011;28552;51.146;6.576;2022-08-14T18:28:00;4.55;;;2.20;;
42906;SDS011;28552;51.146;6.576;2022-08-14T18:34:33;5.20;;;2.17;;
42906;SDS011;28552;51.146;6.576;2022-08-14T18:37:37;6.95;;;2.67;;
42906;SDS011;28552;51.146;6.576;2022-08-14T18:40:38;6.07;;;2.22;;
42906;SDS011;28552;51.146;6.576;2022-08-14T18:53:22;4.53;;;2.15;;
42906;SDS011;28552;51.146;6.576;2022-08-14T18:59:55;4.80;;;2.25;;
42906;SDS011;28552;51.146;6.576;2022-08-14T19:02:57;5.05;;;2.13;;
42906;SDS011;28552;51.146;6.576;2022-08-14T19:06:00;5.20;;;2.22;;